Time;durP1;ratioP1;P1;durP2;ratioP2;P2;SDS_P1;SDS_P2;PMS_P1;PMS_P2;Temp;Humidity;BMP_temperature;BMP_pressure;BME280_temperature;BME280_humidity;BME280_pressure;Samples;Min_cycle;Max_cycle;Signal;HPM_P1;HPM_P2
2022/06/08 00:03:13;;;;;;;10.60;8.45;;;15.80;99.90;;;;;;7338507;32;20112;-60
2022/06/08 00:07:15;;;;;;;13.20;9.68;;;15.80;99.90;;;;;;7340510;32;20151;-59
2022/06/08 00:11:18;;;;;;;12.73;7.75;;;15.80;99.90;;;;;;7338589;32;20182;-60
2022/06/08 00:15:20;;;;;;;12.05;8.25;;;15.90;99.90;;;;;;7341156;32;20115;-57
2022/06/08 00:19:22;;;;;;;9.50;7.90;;;15.90;99.90;;;;;;7340887;32;20653;-58
2022/06/08 00:23:24;;;;;;;9.73;7.82;;;16.00;99.90;;;;;;7323156;32;20447;-59
2022/06/08 00:27:25;;;;;;;10.55;8.65;;;15.90;99.90;;;;;;7325166;32;20618;-59
2022/06/08 00:31:27;;;;;;;11.45;7.50;;;15.90;99.90;;;;;;7328831;32;20119;-59
2022/06/08 00:35:30;;;;;;;11.43;8.05;;;15.90;99.90;;;;;;7330774;32;20142;-59
2022/06/08 00:39:31;;;;;;;11.02;8.35;;;15.80;99.90;;;;;;7335865;32;20257;-59
2022/06/08 00:43:34;;;;;;;12.13;8.88;;;15.90;99.90;;;;;;7341802;32;20098;-59
2022/06/08 00:47:43;;;;;;;10.52;8.63;;;15.80;99.90;;;;;;7341127;32;20108;-59
2022/06/08 00:51:46;;;;;;;10.25;8.02;;;15.70;99.90;;;;;;7336542;32;20434;-59
2022/06/08 00:55:48;;;;;;;12.13;9.13;;;15.70;99.90;;;;;;7334017;32;20729;-59
2022/06/08 01:00:05;;;;;;;12.82;8.80;;;15.70;99.90;;;;;;7340247;32;20099;-59
2022/06/08 01:04:13;;;;;;;9.77;7.95;;;15.60;99.90;;;;;;7332352;32;20210;-59
2022/06/08 01:08:21;;;;;;;8.82;7.93;;;15.40;99.90;;;;;;7325962;32;20130;-59
2022/06/08 01:12:23;;;;;;;9.25;8.10;;;15.30;99.90;;;;;;7331957;32;20644;-59
2022/06/08 01:16:25;;;;;;;12.15;7.97;;;15.20;99.90;;;;;;7324593;32;20138;-60
2022/06/08 01:20:27;;;;;;;10.90;8.25;;;15.10;99.90;;;;;;7332796;32;20252;-59
2022/06/08 01:24:30;;;;;;;11.05;7.97;;;15.00;99.90;;;;;;7334995;32;20206;-59
2022/06/08 01:28:58;;;;;;;13.48;9.20;;;14.90;99.90;;;;;;7328423;32;20182;-59
2022/06/08 01:33:05;;;;;;;9.85;8.77;;;14.70;99.90;;;;;;7306581;32;20142;-59
2022/06/08 01:37:24;;;;;;;15.95;10.43;;;14.60;99.90;;;;;;7328644;32;20455;-59
2022/06/08 01:41:35;;;;;;;12.82;10.05;;;14.60;99.90;;;;;;7332975;32;20130;-59
2022/06/08 01:45:40;;;;;;;14.80;9.95;;;14.60;99.90;;;;;;7337613;32;20123;-59
2022/06/08 01:50:21;;;;;;;12.25;9.52;;;14.50;99.90;;;;;;7326090;32;20119;-59
2022/06/08 01:54:41;;;;;;;10.60;9.20;;;14.40;99.90;;;;;;7317855;32;20206;-59
2022/06/08 01:58:59;;;;;;;16.17;11.23;;;14.40;99.90;;;;;;7324083;32;20217;-59
2022/06/08 02:03:03;;;;;;;11.65;10.35;;;14.30;99.90;;;;;;7323652;32;20456;-59
2022/06/08 02:07:24;;;;;;;13.55;10.85;;;14.30;99.90;;;;;;7328900;32;20107;-59
2022/06/08 02:11:34;;;;;;;13.90;9.88;;;14.20;99.90;;;;;;7329911;32;20107;-59
2022/06/08 02:15:43;;;;;;;11.75;8.93;;;14.10;99.90;;;;;;7319813;32;20198;-59
2022/06/08 02:19:51;;;;;;;12.52;9.25;;;14.00;99.90;;;;;;7327321;32;20111;-59
2022/06/08 02:23:58;;;;;;;13.50;9.38;;;14.00;99.90;;;;;;7326282;32;20209;-60
2022/06/08 02:28:10;;;;;;;11.52;9.93;;;14.00;99.90;;;;;;7327018;32;20107;-60
2022/06/08 02:36:46;;;;;;;13.77;9.20;;;13.90;99.90;;;;;;7325022;32;20154;-59
2022/06/08 02:40:52;;;;;;;11.25;8.50;;;13.80;99.90;;;;;;7321790;32;20862;-59
2022/06/08 02:44:58;;;;;;;10.30;8.38;;;13.80;99.90;;;;;;7320341;32;20134;-59
2022/06/08 02:49:09;;;;;;;13.03;8.93;;;13.80;99.90;;;;;;7339356;32;20137;-59
2022/06/08 02:53:17;;;;;;;11.85;9.20;;;13.70;99.90;;;;;;7327135;32;20550;-58
2022/06/08 02:57:43;;;;;;;13.52;9.45;;;13.80;99.90;;;;;;7321492;32;20718;-59
2022/06/08 03:01:55;;;;;;;10.02;8.95;;;13.80;99.90;;;;;;7321880;32;20129;-59
2022/06/08 03:06:08;;;;;;;11.10;10.00;;;13.80;99.90;;;;;;7325077;32;20176;-59
2022/06/08 03:10:14;;;;;;;12.82;10.10;;;13.90;99.90;;;;;;7325732;32;20673;-59
2022/06/08 03:14:17;;;;;;;11.23;9.55;;;13.80;99.90;;;;;;7322682;32;20133;-59
2022/06/08 03:18:19;;;;;;;13.85;9.25;;;13.80;99.90;;;;;;7335425;32;20253;-59
2022/06/08 03:22:20;;;;;;;10.68;8.85;;;13.80;99.90;;;;;;7340540;32;20107;-60
2022/06/08 03:26:24;;;;;;;10.70;7.78;;;13.70;99.90;;;;;;7329815;32;20203;-59
2022/06/08 03:30:25;;;;;;;14.43;7.37;;;13.80;99.90;;;;;;7326309;32;20176;-59
2022/06/08 03:34:27;;;;;;;8.80;6.10;;;13.80;99.90;;;;;;7327567;32;20108;-59
2022/06/08 03:38:29;;;;;;;9.57;6.32;;;13.80;99.90;;;;;;7327564;32;20350;-59
2022/06/08 03:42:31;;;;;;;8.85;6.30;;;13.80;99.90;;;;;;7342155;32;20125;-59
2022/06/08 03:46:39;;;;;;;11.07;6.18;;;13.90;99.90;;;;;;7317674;32;20281;-59
2022/06/08 03:50:42;;;;;;;10.93;5.80;;;14.00;99.90;;;;;;7318599;32;20135;-59
2022/06/08 03:54:48;;;;;;;10.00;5.97;;;14.00;99.90;;;;;;7320926;32;20191;-60
2022/06/08 03:58:51;;;;;;;9.25;6.00;;;14.10;99.90;;;;;;7341275;32;20119;-60
2022/06/08 04:02:53;;;;;;;8.85;4.80;;;14.10;99.90;;;;;;7322637;32;20138;-59
2022/06/08 04:07:01;;;;;;;8.93;5.80;;;14.10;99.90;;;;;;7317888;32;20166;-59
2022/06/08 04:11:03;;;;;;;8.48;5.10;;;14.10;99.90;;;;;;7331213;32;20213;-59
2022/06/08 04:15:06;;;;;;;7.97;4.43;;;14.20;99.90;;;;;;7331946;32;20575;-59
2022/06/08 04:19:07;;;;;;;10.60;4.65;;;14.20;99.90;;;;;;7331447;32;20107;-61
2022/06/08 04:23:09;;;;;;;6.53;4.37;;;14.30;99.90;;;;;;7336348;32;20157;-63
2022/06/08 04:27:12;;;;;;;7.47;4.07;;;14.30;99.90;;;;;;7336142;32;20137;-62
2022/06/08 04:31:14;;;;;;;8.30;4.20;;;14.40;99.90;;;;;;7328498;32;20210;-62
2022/06/08 04:35:17;;;;;;;5.00;3.78;;;14.40;99.90;;;;;;7332458;32;20265;-62
2022/06/08 04:39:19;;;;;;;7.68;3.97;;;14.50;99.90;;;;;;7329690;32;20231;-62
2022/06/08 04:43:21;;;;;;;6.50;4.65;;;14.60;99.90;;;;;;7335291;32;20134;-62
2022/06/08 04:47:22;;;;;;;8.10;4.07;;;14.60;99.90;;;;;;7326340;32;20131;-62
2022/06/08 04:51:24;;;;;;;6.45;3.67;;;14.70;99.90;;;;;;7321300;32;20770;-62
2022/06/08 04:55:26;;;;;;;6.22;3.58;;;14.60;99.90;;;;;;7325489;32;20162;-63
2022/06/08 04:59:28;;;;;;;9.88;3.80;;;14.70;99.90;;;;;;7316444;32;20111;-63
2022/06/08 05:03:30;;;;;;;6.65;3.83;;;14.70;99.90;;;;;;7329589;32;20120;-64
2022/06/08 05:07:32;;;;;;;4.87;2.97;;;14.70;99.90;;;;;;7332948;32;20355;-64
2022/06/08 05:11:34;;;;;;;4.93;2.50;;;14.80;99.90;;;;;;7326516;32;20601;-64
2022/06/08 05:15:39;;;;;;;5.53;2.25;;;15.00;99.90;;;;;;7323205;32;20135;-63
2022/06/08 05:19:40;;;;;;;3.85;2.40;;;15.30;99.90;;;;;;7312113;32;20276;-62
2022/06/08 05:23:43;;;;;;;6.07;2.25;;;15.80;99.90;;;;;;7324526;32;20111;-63
2022/06/08 05:27:45;;;;;;;4.90;2.00;;;16.30;99.90;;;;;;7321916;32;20590;-62
2022/06/08 05:31:47;;;;;;;3.85;1.50;;;16.70;99.90;;;;;;7325599;32;20782;-62
2022/06/08 05:35:48;;;;;;;2.25;1.50;;;17.20;99.90;;;;;;7327733;32;20111;-63
2022/06/08 05:39:50;;;;;;;2.22;1.40;;;17.70;99.90;;;;;;7326200;32;20107;-63
2022/06/08 05:43:52;;;;;;;2.33;1.40;;;17.80;99.90;;;;;;7321153;32;20149;-63
2022/06/08 05:47:54;;;;;;;2.80;1.62;;;17.90;99.90;;;;;;7320603;32;20211;-63
2022/06/08 05:51:55;;;;;;;3.92;1.30;;;17.80;99.90;;;;;;7317438;32;20142;-63
2022/06/08 05:55:57;;;;;;;3.72;1.40;;;17.80;99.90;;;;;;7320029;32;20111;-63
2022/06/08 05:59:59;;;;;;;4.80;1.30;;;17.80;99.90;;;;;;7318631;32;20190;-63
2022/06/08 06:04:05;;;;;;;3.40;1.40;;;17.60;99.90;;;;;;7320159;32;20254;-62
2022/06/08 06:08:08;;;;;;;2.05;1.17;;;17.70;99.90;;;;;;7318299;32;20492;-63
2022/06/08 06:12:10;;;;;;;1.77;1.27;;;17.70;99.90;;;;;;7321214;32;20130;-63
2022/06/08 06:16:12;;;;;;;3.72;1.20;;;17.70;99.90;;;;;;7315104;32;20104;-63
2022/06/08 06:20:14;;;;;;;4.10;1.45;;;17.60;99.90;;;;;;7317820;32;20288;-63
2022/06/08 06:24:16;;;;;;;4.22;1.15;;;17.50;99.90;;;;;;7316726;32;20112;-63
2022/06/08 06:28:18;;;;;;;3.97;1.20;;;17.40;99.90;;;;;;7317838;32;20148;-63
2022/06/08 06:32:25;;;;;;;1.65;1.37;;;17.50;99.90;;;;;;7317566;32;21121;-63
2022/06/08 06:36:27;;;;;;;1.52;0.93;;;17.50;99.90;;;;;;7314064;32;20599;-63
2022/06/08 06:40:29;;;;;;;1.73;1.12;;;17.70;99.90;;;;;;7319629;32;20115;-63
2022/06/08 06:44:31;;;;;;;1.00;0.90;;;17.80;99.90;;;;;;7319123;32;20636;-62
2022/06/08 06:48:33;;;;;;;2.78;0.93;;;18.00;99.90;;;;;;7321167;32;20252;-63
2022/06/08 06:52:35;;;;;;;4.25;1.23;;;18.20;99.90;;;;;;7318398;32;20111;-63
2022/06/08 06:56:37;;;;;;;3.37;0.90;;;18.20;99.90;;;;;;7320452;32;20602;-62
2022/06/08 07:00:39;;;;;;;1.85;0.85;;;18.40;99.90;;;;;;7319204;32;20509;-62
2022/06/08 07:04:41;;;;;;;2.42;0.98;;;18.40;99.90;;;;;;7320724;32;20134;-62
2022/06/08 07:08:43;;;;;;;1.55;0.80;;;18.30;99.90;;;;;;7319988;32;20641;-62
2022/06/08 07:12:46;;;;;;;1.25;0.80;;;18.50;99.90;;;;;;7320618;32;20155;-63
2022/06/08 07:16:47;;;;;;;3.17;1.00;;;18.50;99.90;;;;;;7317009;32;20166;-62
2022/06/08 07:20:49;;;;;;;1.67;0.60;;;18.60;99.90;;;;;;7318388;32;20646;-61
2022/06/08 07:24:51;;;;;;;3.25;0.60;;;18.70;99.90;;;;;;7317503;32;20119;-62
2022/06/08 07:28:53;;;;;;;2.47;0.70;;;18.80;99.90;;;;;;7319004;32;20125;-62
2022/06/08 07:32:54;;;;;;;4.65;0.60;;;18.90;99.90;;;;;;7326620;32;20112;-62
2022/06/08 07:36:56;;;;;;;1.58;0.70;;;18.90;99.90;;;;;;7325661;32;20134;-62
2022/06/08 07:40:58;;;;;;;2.25;0.80;;;18.90;99.90;;;;;;7330008;32;20107;-62
2022/06/08 07:45:01;;;;;;;3.15;0.95;;;18.90;99.90;;;;;;7327600;32;20111;-62
2022/06/08 07:53:23;;;;;;;2.12;0.93;;;18.70;99.90;;;;;;7323488;32;20111;-62
2022/06/08 07:57:26;;;;;;;5.40;0.80;;;18.60;99.90;;;;;;7320313;32;20220;-62
2022/06/08 08:01:28;;;;;;;2.67;0.88;;;18.70;99.90;;;;;;7318652;32;20226;-62
2022/06/08 08:05:30;;;;;;;4.55;0.60;;;18.60;99.90;;;;;;7323832;32;20175;-62
2022/06/08 08:09:33;;;;;;;3.05;0.77;;;18.70;99.90;;;;;;7318946;32;20205;-62
2022/06/08 08:13:37;;;;;;;3.08;1.15;;;18.70;99.90;;;;;;7323977;32;20280;-62
2022/06/08 08:17:41;;;;;;;2.58;0.80;;;18.90;99.90;;;;;;7320271;32;20108;-61
2022/06/08 08:21:43;;;;;;;1.73;0.98;;;18.80;99.90;;;;;;7319178;32;20194;-63
2022/06/08 08:25:45;;;;;;;3.72;0.80;;;18.90;99.90;;;;;;7317119;32;20226;-61
2022/06/08 08:29:47;;;;;;;2.50;1.10;;;19.00;99.90;;;;;;7319326;32;20262;-62
2022/06/08 08:33:49;;;;;;;4.43;1.35;;;19.30;99.90;;;;;;7320303;32;20111;-62
2022/06/08 08:37:53;;;;;;;2.17;1.05;;;19.50;99.90;;;;;;7319959;32;20222;-62
2022/06/08 08:46:22;;;;;;;3.28;1.35;;;19.70;99.90;;;;;;7319523;32;20540;-62
2022/06/08 08:50:41;;;;;;;3.65;1.10;;;19.90;99.90;;;;;;7314550;32;20107;-62
2022/06/08 08:54:51;;;;;;;3.03;1.40;;;20.20;99.90;;;;;;7322157;32;20293;-63
2022/06/08 08:58:53;;;;;;;2.85;1.27;;;20.40;99.90;;;;;;7319627;32;20704;-63
2022/06/08 09:07:18;;;;;;;5.37;1.10;;;23.00;99.90;;;;;;7315701;32;20213;-61
2022/06/08 09:11:27;;;;;;;3.85;1.10;;;23.70;99.90;;;;;;7314369;32;20922;-63
2022/06/08 09:16:01;;;;;;;6.55;1.20;;;24.10;99.90;;;;;;7317905;32;20468;-62
2022/06/08 09:20:32;;;;;;;5.75;1.08;;;24.90;99.90;;;;;;7299569;32;20414;-63
2022/06/08 09:24:56;;;;;;;4.70;1.37;;;25.40;99.90;;;;;;7316683;32;20189;-63
2022/06/08 09:29:12;;;;;;;4.85;0.98;;;25.80;99.90;;;;;;7317353;32;20138;-63
2022/06/08 09:33:30;;;;;;;2.50;0.90;;;26.20;99.90;;;;;;7320805;32;20247;-63
2022/06/08 09:37:32;;;;;;;3.33;0.90;;;26.30;99.90;;;;;;7319042;32;20866;-63
2022/06/08 09:41:42;;;;;;;5.50;1.00;;;26.40;99.90;;;;;;7310979;32;20626;-63
2022/06/08 09:46:15;;;;;;;2.97;1.02;;;26.50;99.90;;;;;;7317365;32;20254;-63
2022/06/08 09:55:08;;;;;;;5.47;1.30;;;24.40;99.90;;;;;;7313333;32;20120;-62
2022/06/08 09:59:27;;;;;;;6.57;1.58;;;23.60;99.90;;;;;;7313589;32;20217;-63
2022/06/08 10:03:42;;;;;;;6.70;1.05;;;23.10;99.90;;;;;;7316727;32;20574;-62
2022/06/08 10:08:19;;;;;;;7.05;1.30;;;22.60;99.90;;;;;;7317718;32;20112;-63
2022/06/08 10:12:58;;;;;;;4.50;1.08;;;22.20;99.90;;;;;;7310213;32;20139;-63
2022/06/08 10:17:10;;;;;;;3.97;1.20;;;22.00;99.90;;;;;;7322080;32;20103;-63
2022/06/08 10:21:16;;;;;;;4.57;1.30;;;22.30;99.90;;;;;;7311270;32;20143;-62
2022/06/08 10:25:17;;;;;;;4.87;1.20;;;22.30;99.90;;;;;;7314183;32;20198;-63
2022/06/08 10:29:28;;;;;;;4.55;1.40;;;22.10;99.90;;;;;;7334879;32;20111;-63
2022/06/08 10:33:40;;;;;;;4.50;1.45;;;22.00;99.90;;;;;;7320219;32;20111;-62
2022/06/08 10:37:43;;;;;;;2.72;1.02;;;21.90;99.90;;;;;;7320899;32;20747;-63
2022/06/08 10:46:29;;;;;;;3.62;1.30;;;21.60;99.90;;;;;;7318116;32;20195;-62
2022/06/08 10:50:40;;;;;;;5.57;1.20;;;21.30;99.90;;;;;;7330173;32;20168;-61
2022/06/08 10:54:58;;;;;;;7.05;1.48;;;20.50;99.90;;;;;;7319468;32;20130;-62
2022/06/08 10:59:06;;;;;;;8.73;1.77;;;19.30;99.90;;;;;;7325118;32;20337;-63
2022/06/08 11:03:30;;;;;;;17.40;3.28;;;18.60;99.90;;;;;;7321324;32;20134;-60
2022/06/08 11:08:10;;;;;;;7.85;2.20;;;17.80;99.90;;;;;;7312593;32;20115;-60
2022/06/08 11:12:11;;;;;;;7.35;3.28;;;17.10;99.90;;;;;;7317832;32;20120;-61
2022/06/08 11:16:22;;;;;;;9.35;2.67;;;16.70;99.90;;;;;;7311751;32;20251;-61
2022/06/08 11:20:47;;;;;;;10.25;4.00;;;16.50;99.90;;;;;;7312579;32;20110;-61
2022/06/08 11:24:53;;;;;;;5.47;3.33;;;16.50;99.90;;;;;;7305451;32;20676;-61
2022/06/08 11:29:25;;;;;;;9.60;4.05;;;16.50;99.90;;;;;;7318741;32;20134;-60
2022/06/08 11:34:05;;;;;;;10.52;4.30;;;16.50;99.90;;;;;;7311921;32;20111;-61
2022/06/08 11:38:44;;;;;;;12.98;4.85;;;16.70;99.90;;;;;;7259793;32;20132;-60
2022/06/08 11:42:58;;;;;;;13.88;4.55;;;16.60;99.90;;;;;;7288746;32;20202;-60
2022/06/08 11:47:17;;;;;;;10.13;4.97;;;16.50;99.90;;;;;;7315416;32;20099;-61
2022/06/08 11:51:37;;;;;;;9.10;3.72;;;16.40;99.90;;;;;;7315487;32;20119;-60
2022/06/08 11:55:58;;;;;;;10.65;2.90;;;16.30;99.90;;;;;;7314873;32;20200;-60
2022/06/08 12:00:01;;;;;;;9.40;3.40;;;16.30;99.90;;;;;;7315979;32;20609;-60
2022/06/08 12:04:11;;;;;;;9.60;3.33;;;16.20;99.90;;;;;;7317914;32;20176;-61
2022/06/08 12:08:18;;;;;;;8.90;3.78;;;16.40;99.90;;;;;;7313886;32;20195;-61
2022/06/08 12:12:41;;;;;;;7.40;5.00;;;16.40;99.90;;;;;;7309489;32;20110;-61
2022/06/08 12:16:58;;;;;;;9.30;4.57;;;16.50;99.90;;;;;;7321687;32;20136;-62
2022/06/08 12:21:26;;;;;;;9.25;4.10;;;16.50;99.90;;;;;;7319918;32;20508;-61
2022/06/08 12:25:30;;;;;;;9.80;4.03;;;16.40;99.90;;;;;;7321504;32;20133;-60
2022/06/08 12:29:38;;;;;;;11.98;3.95;;;16.40;99.90;;;;;;7320970;32;20153;-61
2022/06/08 12:33:41;;;;;;;12.18;3.58;;;16.40;99.90;;;;;;7316609;32;20313;-61
2022/06/08 12:37:45;;;;;;;10.27;3.78;;;16.40;99.90;;;;;;7320609;32;20107;-61
2022/06/08 12:41:52;;;;;;;7.20;3.75;;;16.40;99.90;;;;;;7316672;32;20230;-61
2022/06/08 12:46:17;;;;;;;10.30;3.83;;;16.40;99.90;;;;;;7317232;32;20684;-61
2022/06/08 12:50:25;;;;;;;7.97;4.22;;;16.40;99.90;;;;;;7313169;32;20373;-60
2022/06/08 12:54:33;;;;;;;8.60;3.85;;;16.40;99.90;;;;;;7320480;32;20137;-60
2022/06/08 12:58:35;;;;;;;7.90;3.30;;;16.40;99.90;;;;;;7318680;32;20199;-61
2022/06/08 13:02:39;;;;;;;7.15;3.83;;;16.50;99.90;;;;;;7324641;32;20502;-61
2022/06/08 13:06:41;;;;;;;12.00;3.97;;;16.70;99.90;;;;;;7321201;32;20126;-61
2022/06/08 13:10:44;;;;;;;8.30;3.55;;;16.80;99.90;;;;;;7315611;32;20194;-61
2022/06/08 13:14:46;;;;;;;11.82;4.53;;;17.00;99.90;;;;;;7324257;32;20578;-61
2022/06/08 13:18:50;;;;;;;9.55;3.10;;;16.90;99.90;;;;;;7313823;32;20229;-63
2022/06/08 13:22:53;;;;;;;8.27;2.80;;;16.90;99.90;;;;;;7323560;32;20135;-61
2022/06/08 13:27:11;;;;;;;11.60;3.83;;;16.90;99.90;;;;;;7322332;32;20100;-62
2022/06/08 13:31:13;;;;;;;8.23;3.45;;;16.90;99.90;;;;;;7324117;32;20112;-62
2022/06/08 13:35:17;;;;;;;8.32;3.37;;;16.90;99.90;;;;;;7312182;32;20488;-61
2022/06/08 13:39:27;;;;;;;9.32;3.72;;;17.00;99.90;;;;;;7314626;32;20213;-60
2022/06/08 13:43:29;;;;;;;9.13;3.10;;;16.90;99.90;;;;;;7317311;32;20111;-62
2022/06/08 13:47:34;;;;;;;8.50;2.65;;;16.80;99.90;;;;;;7316959;32;20127;-62
2022/06/08 13:51:36;;;;;;;8.50;2.97;;;16.60;99.90;;;;;;7326902;32;20325;-63
2022/06/08 13:55:42;;;;;;;9.27;3.60;;;16.60;99.90;;;;;;7318728;32;20203;-62
2022/06/08 13:59:46;;;;;;;6.45;2.75;;;16.60;99.90;;;;;;7314323;32;20146;-60
2022/06/08 14:03:48;;;;;;;6.75;2.55;;;16.60;99.90;;;;;;7322083;32;20314;-61
2022/06/08 14:16:43;;;;;;;5.30;2.85;;;16.40;99.90;;;;;;7315310;32;20127;-63
2022/06/08 14:20:46;;;;;;;8.05;3.62;;;16.40;99.90;;;;;;7318344;32;20522;-63
2022/06/08 14:25:01;;;;;;;5.65;2.40;;;16.30;99.90;;;;;;7320435;32;20680;-62
2022/06/08 14:29:03;;;;;;;6.20;2.60;;;16.30;99.90;;;;;;7311487;32;20213;-66
2022/06/08 14:33:21;;;;;;;6.05;2.37;;;16.20;99.90;;;;;;7310844;32;21049;-61
2022/06/08 14:37:23;;;;;;;5.68;2.37;;;16.20;99.90;;;;;;7315382;32;20570;-63
2022/06/08 14:41:37;;;;;;;5.20;2.62;;;16.00;99.90;;;;;;7311311;32;20166;-63
2022/06/08 14:45:41;;;;;;;8.18;3.60;;;15.90;99.90;;;;;;7314096;32;20484;-61
2022/06/08 14:49:43;;;;;;;6.37;2.72;;;15.90;99.90;;;;;;7320264;32;20142;-62
2022/06/08 14:53:50;;;;;;;4.97;2.42;;;15.90;99.90;;;;;;7315889;32;20126;-63
2022/06/08 14:57:52;;;;;;;6.07;2.65;;;15.80;99.90;;;;;;7313640;32;20103;-62
2022/06/08 15:01:57;;;;;;;8.57;2.90;;;15.70;99.90;;;;;;7311111;32;20167;-61
2022/06/08 15:06:01;;;;;;;8.20;2.60;;;15.60;99.90;;;;;;7313752;32;20124;-62
2022/06/08 15:10:06;;;;;;;10.05;2.72;;;15.50;99.90;;;;;;7314083;32;20141;-63
2022/06/08 15:14:19;;;;;;;6.90;3.05;;;15.50;99.90;;;;;;7311082;32;20134;-62
2022/06/08 15:18:21;;;;;;;7.65;4.10;;;15.50;99.90;;;;;;7311900;32;20251;-61
2022/06/08 15:22:27;;;;;;;5.43;2.45;;;15.50;99.90;;;;;;7314698;32;20187;-62
2022/06/08 15:26:29;;;;;;;6.65;3.17;;;15.50;99.90;;;;;;7313608;32;20115;-61
2022/06/08 15:30:33;;;;;;;8.63;2.92;;;15.40;99.90;;;;;;7314803;32;20130;-63
2022/06/08 15:34:36;;;;;;;6.57;2.45;;;15.40;99.90;;;;;;7312793;32;20230;-61
2022/06/08 15:38:52;;;;;;;6.70;2.65;;;15.50;99.90;;;;;;7318037;32;20245;-61
2022/06/08 15:42:54;;;;;;;4.77;2.20;;;15.50;99.90;;;;;;7319744;32;20734;-62
2022/06/08 15:47:00;;;;;;;6.50;2.62;;;15.60;99.90;;;;;;7316050;32;20242;-61
2022/06/08 15:51:13;;;;;;;6.50;2.40;;;15.60;99.90;;;;;;7311223;32;20266;-62
2022/06/08 15:55:20;;;;;;;4.70;2.30;;;15.60;99.90;;;;;;7315168;32;20166;-63
2022/06/08 15:59:45;;;;;;;5.68;2.92;;;15.70;99.90;;;;;;7333364;32;20202;-62
2022/06/08 16:03:47;;;;;;;5.68;2.35;;;15.80;99.90;;;;;;7315181;32;20116;-63
2022/06/08 16:07:49;;;;;;;6.60;2.72;;;16.00;99.90;;;;;;7318699;32;20161;-62
2022/06/08 16:11:51;;;;;;;5.05;2.42;;;16.00;99.90;;;;;;7313526;32;20967;-64
2022/06/08 16:15:52;;;;;;;3.45;1.90;;;16.00;99.90;;;;;;7313904;32;20230;-63
2022/06/08 16:19:54;;;;;;;4.93;2.08;;;16.00;99.90;;;;;;7314586;32;20116;-64
2022/06/08 16:23:56;;;;;;;4.10;2.78;;;16.00;99.90;;;;;;7311827;32;20221;-62
2022/06/08 16:27:58;;;;;;;3.33;1.40;;;16.10;99.90;;;;;;7309765;32;20583;-63
2022/06/08 16:32:00;;;;;;;3.97;1.48;;;16.00;99.90;;;;;;7315550;32;20248;-63
2022/06/08 16:36:03;;;;;;;2.33;0.88;;;15.90;99.90;;;;;;7309806;32;20142;-63
2022/06/08 16:40:08;;;;;;;3.05;1.10;;;15.70;99.90;;;;;;7321783;32;20154;-62
2022/06/08 16:44:10;;;;;;;2.62;1.10;;;15.60;99.90;;;;;;7316813;32;20107;-62
2022/06/08 16:48:13;;;;;;;2.17;0.95;;;15.50;99.90;;;;;;7317953;32;20222;-61
2022/06/08 16:52:15;;;;;;;1.75;1.25;;;15.50;99.90;;;;;;7303522;32;20222;-63
2022/06/08 16:56:17;;;;;;;2.62;1.02;;;15.50;99.90;;;;;;7292401;32;20282;-61
2022/06/08 17:00:19;;;;;;;1.77;1.05;;;15.50;99.90;;;;;;7288720;32;20249;-62
2022/06/08 17:04:21;;;;;;;3.80;1.25;;;15.50;99.90;;;;;;7314214;32;20190;-64
2022/06/08 17:08:23;;;;;;;3.35;1.10;;;15.50;99.90;;;;;;7320734;32;20111;-63
2022/06/08 17:12:25;;;;;;;6.65;1.30;;;15.40;99.90;;;;;;7320079;32;20139;-61
2022/06/08 17:16:28;;;;;;;3.70;2.33;;;15.40;99.90;;;;;;7319634;32;20878;-60
2022/06/08 17:20:29;;;;;;;2.75;1.60;;;15.40;99.90;;;;;;7319279;32;20152;-64
2022/06/08 17:24:31;;;;;;;2.97;1.33;;;15.30;99.90;;;;;;7319967;32;20238;-61
2022/06/08 17:28:33;;;;;;;4.18;1.02;;;15.10;99.90;;;;;;7321084;32;20578;-64
2022/06/08 17:32:36;;;;;;;2.67;1.05;;;15.00;99.90;;;;;;7298768;32;20205;-65
2022/06/08 17:36:39;;;;;;;2.08;1.30;;;14.90;99.90;;;;;;7308563;32;20621;-65
2022/06/08 17:40:41;;;;;;;2.15;1.12;;;14.80;99.90;;;;;;7297264;32;20210;-63
2022/06/08 17:44:44;;;;;;;2.75;1.00;;;14.80;99.90;;;;;;7318393;32;20116;-65
2022/06/08 17:48:46;;;;;;;4.68;1.77;;;14.80;99.90;;;;;;7308956;32;20222;-66
2022/06/08 17:52:51;;;;;;;2.58;1.15;;;14.80;99.90;;;;;;7333208;32;20123;-62
2022/06/08 17:56:52;;;;;;;2.45;1.40;;;14.80;99.90;;;;;;7314958;32;20165;-64
2022/06/08 18:00:54;;;;;;;5.85;2.00;;;14.80;99.90;;;;;;7320200;32;20253;-63
2022/06/08 18:04:57;;;;;;;4.72;2.00;;;14.80;99.90;;;;;;7311177;32;20429;-63
2022/06/08 18:08:59;;;;;;;3.35;1.80;;;14.80;99.90;;;;;;7316098;32;20108;-59
2022/06/08 18:13:01;;;;;;;5.12;2.53;;;14.70;99.90;;;;;;7322746;32;20130;-59
2022/06/08 18:17:04;;;;;;;9.68;3.62;;;14.80;99.90;;;;;;7318191;32;20116;-59
2022/06/08 18:21:06;;;;;;;10.82;2.55;;;14.70;99.90;;;;;;7325202;32;20233;-64
2022/06/08 18:25:10;;;;;;;6.97;2.60;;;14.70;99.90;;;;;;7318392;32;20230;-66
2022/06/08 18:29:22;;;;;;;10.43;2.92;;;14.80;99.90;;;;;;7320180;32;20531;-67
2022/06/08 18:33:25;;;;;;;8.25;3.28;;;14.70;99.90;;;;;;7323568;32;20134;-65
2022/06/08 18:37:29;;;;;;;11.18;3.47;;;14.70;99.90;;;;;;7318941;32;20827;-64
2022/06/08 18:41:32;;;;;;;8.95;4.03;;;14.70;99.90;;;;;;7314984;32;20111;-64
2022/06/08 18:45:34;;;;;;;8.68;3.42;;;14.70;99.90;;;;;;7320146;32;20103;-66
2022/06/08 18:49:35;;;;;;;8.50;4.40;;;14.70;99.90;;;;;;7312423;32;20182;-67
2022/06/08 18:53:40;;;;;;;8.60;2.97;;;14.70;99.90;;;;;;7317807;32;21671;-67
2022/06/08 18:57:44;;;;;;;9.98;3.47;;;14.80;99.90;;;;;;7321115;32;20133;-66
2022/06/08 19:01:45;;;;;;;9.35;3.50;;;14.70;99.90;;;;;;7314388;32;20115;-66
2022/06/08 19:05:48;;;;;;;12.85;3.47;;;14.70;99.90;;;;;;7323471;32;20290;-66
2022/06/08 19:09:51;;;;;;;8.48;3.72;;;14.60;99.90;;;;;;7321750;32;20111;-67
2022/06/08 19:13:52;;;;;;;8.02;3.30;;;14.70;99.90;;;;;;7326835;32;20654;-65
2022/06/08 19:22:15;;;;;;;7.28;3.50;;;14.60;99.90;;;;;;7316437;32;20116;-66
2022/06/08 19:26:17;;;;;;;8.50;3.70;;;14.60;99.90;;;;;;7323118;32;20202;-66
2022/06/08 19:30:19;;;;;;;8.85;3.50;;;14.50;99.90;;;;;;7323724;32;20126;-66
2022/06/08 19:34:21;;;;;;;8.00;3.42;;;14.50;99.90;;;;;;7322715;32;20115;-65
2022/06/08 19:38:24;;;;;;;7.75;3.22;;;14.40;99.90;;;;;;7318125;32;20210;-67
2022/06/08 19:42:27;;;;;;;9.63;3.25;;;14.40;99.90;;;;;;7315566;32;20239;-65
2022/06/08 19:46:29;;;;;;;8.80;3.45;;;14.40;99.90;;;;;;7323462;32;20798;-66
2022/06/08 19:50:30;;;;;;;11.25;4.10;;;14.40;99.90;;;;;;7323095;32;20919;-67
2022/06/08 19:54:32;;;;;;;9.68;4.03;;;14.30;99.90;;;;;;7323768;32;20225;-66
2022/06/08 19:58:35;;;;;;;8.63;3.75;;;14.20;99.90;;;;;;7320326;32;20103;-64
2022/06/08 20:02:37;;;;;;;5.40;3.20;;;14.30;99.90;;;;;;7322886;32;20221;-65
2022/06/08 20:06:39;;;;;;;9.43;3.95;;;14.30;99.90;;;;;;7323285;32;20147;-64
2022/06/08 20:10:41;;;;;;;8.00;4.35;;;14.30;99.90;;;;;;7315304;32;20112;-66
2022/06/08 20:14:43;;;;;;;6.85;3.95;;;14.30;99.90;;;;;;7328239;32;20137;-65
2022/06/08 20:18:45;;;;;;;12.15;4.90;;;14.20;99.90;;;;;;7321246;32;20111;-64
2022/06/08 20:22:47;;;;;;;13.23;4.43;;;14.20;99.90;;;;;;7321339;32;20511;-64
2022/06/08 20:26:48;;;;;;;10.05;4.45;;;14.10;99.90;;;;;;7328714;32;20794;-62
2022/06/08 20:30:57;;;;;;;12.05;4.65;;;14.20;99.90;;;;;;7320469;32;20236;-63
2022/06/08 20:34:59;;;;;;;16.20;5.50;;;14.10;99.90;;;;;;7324856;32;20130;-62
2022/06/08 20:39:01;;;;;;;14.85;5.87;;;14.10;99.90;;;;;;7324930;32;20805;-63
2022/06/08 20:43:04;;;;;;;12.93;5.72;;;14.20;99.90;;;;;;7324696;32;20115;-63
2022/06/08 20:47:07;;;;;;;13.05;5.80;;;14.10;99.90;;;;;;7331275;32;20186;-64
2022/06/08 20:51:09;;;;;;;12.35;5.72;;;14.20;99.90;;;;;;7322761;32;20313;-63
2022/06/08 20:55:16;;;;;;;14.73;5.45;;;14.20;99.90;;;;;;7316912;32;20165;-63
2022/06/08 20:59:18;;;;;;;9.73;5.87;;;14.20;99.90;;;;;;7322595;32;20495;-61
2022/06/08 21:03:24;;;;;;;15.15;5.85;;;14.10;99.90;;;;;;7324847;32;20456;-63
2022/06/08 21:07:27;;;;;;;16.08;6.10;;;14.20;99.90;;;;;;7324801;32;20495;-64
2022/06/08 21:11:29;;;;;;;11.05;6.40;;;14.10;99.90;;;;;;7322275;32;20129;-62
2022/06/08 21:15:31;;;;;;;15.25;6.28;;;14.20;99.90;;;;;;7327575;32;20244;-63
2022/06/08 21:19:33;;;;;;;13.13;5.95;;;14.20;99.90;;;;;;7324953;32;20255;-63
2022/06/08 21:23:34;;;;;;;18.40;6.28;;;14.10;99.90;;;;;;7328317;32;20749;-62
2022/06/08 21:27:36;;;;;;;16.70;6.18;;;14.10;99.90;;;;;;7326286;32;20276;-63
2022/06/08 21:31:38;;;;;;;13.70;6.70;;;14.10;99.90;;;;;;7328471;32;20285;-62
2022/06/08 21:35:42;;;;;;;14.15;6.57;;;14.10;99.90;;;;;;7322163;32;20111;-60
2022/06/08 21:39:44;;;;;;;17.10;6.25;;;14.10;99.90;;;;;;7321195;32;20173;-60
2022/06/08 21:43:46;;;;;;;13.68;5.68;;;14.10;99.90;;;;;;7323621;32;20245;-61
2022/06/08 21:47:48;;;;;;;17.45;7.30;;;14.10;99.90;;;;;;7328468;32;20216;-60
2022/06/08 21:51:50;;;;;;;19.85;6.43;;;14.10;99.90;;;;;;7323689;32;20586;-62
2022/06/08 21:55:54;;;;;;;12.98;5.75;;;14.10;99.90;;;;;;7321856;32;20107;-60